Time;durP1;ratioP1;P1;durP2;ratioP2;P2;SDS_P1;SDS_P2;PMS_P1;PMS_P2;Temp;Humidity;BMP_temperature;BMP_pressure;BME280_temperature;BME280_humidity;BME280_pressure;Samples;Min_cycle;Max_cycle;Signal;HPM_P1;HPM_P2
2021/04/19 00:01:20;;;;;;;41.75;21.92;;;10.90;99.90;;;;;;5083158;28;20024;-69
2021/04/19 00:03:46;;;;;;;43.35;21.98;;;10.90;99.90;;;;;;5076437;28;20023;-70
2021/04/19 00:06:12;;;;;;;39.38;22.33;;;10.80;99.90;;;;;;5084107;28;20114;-69
2021/04/19 00:08:38;;;;;;;35.70;20.52;;;10.80;99.90;;;;;;5075176;28;20029;-69
2021/04/19 00:11:03;;;;;;;37.78;21.63;;;10.70;99.90;;;;;;5077052;28;20036;-69
2021/04/19 00:13:29;;;;;;;35.17;21.17;;;10.70;99.90;;;;;;5075309;28;20024;-69
2021/04/19 00:15:55;;;;;;;38.95;22.92;;;10.70;99.90;;;;;;5072488;28;20060;-69
2021/04/19 00:18:20;;;;;;;40.38;21.73;;;10.70;99.90;;;;;;5071194;28;20568;-68
2021/04/19 00:20:46;;;;;;;38.80;19.52;;;10.70;99.90;;;;;;5070280;28;20027;-69
2021/04/19 00:23:12;;;;;;;41.63;21.77;;;10.60;99.90;;;;;;5067025;28;20024;-69
2021/04/19 00:25:38;;;;;;;45.20;21.45;;;10.70;99.90;;;;;;5066013;28;20039;-69
2021/04/19 00:28:04;;;;;;;38.38;22.48;;;10.70;99.90;;;;;;5074006;28;20054;-69
2021/04/19 00:30:30;;;;;;;37.83;21.52;;;10.70;99.90;;;;;;5072378;28;20033;-69
2021/04/19 00:32:56;;;;;;;43.78;21.40;;;10.60;99.90;;;;;;5075510;28;20019;-69
2021/04/19 00:35:22;;;;;;;33.95;21.40;;;10.60;99.90;;;;;;5075131;28;20044;-69
2021/04/19 00:37:48;;;;;;;41.35;22.20;;;10.60;99.90;;;;;;5070677;28;20025;-69
2021/04/19 00:40:16;;;;;;;46.75;21.67;;;10.60;99.90;;;;;;5073432;28;20043;-69
2021/04/19 00:42:44;;;;;;;39.63;21.10;;;10.70;99.90;;;;;;5073113;28;20020;-69
2021/04/19 00:45:10;;;;;;;42.05;23.17;;;10.60;99.90;;;;;;5069403;28;20047;-68
2021/04/19 00:47:37;;;;;;;40.85;21.63;;;10.60;99.90;;;;;;5068154;28;20024;-69
2021/04/19 00:50:10;;;;;;;39.83;21.45;;;10.50;99.90;;;;;;5069972;28;20113;-69
2021/04/19 00:52:36;;;;;;;37.47;23.52;;;10.50;99.90;;;;;;5072501;28;20020;-69
2021/04/19 00:55:02;;;;;;;38.55;21.15;;;10.40;99.90;;;;;;5068609;28;20488;-69
2021/04/19 00:57:30;;;;;;;45.00;21.95;;;10.20;99.90;;;;;;5074099;28;20100;-69
2021/04/19 00:59:55;;;;;;;36.83;20.73;;;10.20;99.90;;;;;;5063928;28;20079;-69
2021/04/19 01:02:21;;;;;;;37.67;20.02;;;10.20;99.90;;;;;;5073566;28;20024;-69
2021/04/19 01:04:47;;;;;;;40.78;22.42;;;10.10;99.90;;;;;;5063711;28;20029;-69
2021/04/19 01:07:13;;;;;;;37.70;21.05;;;10.10;99.90;;;;;;5066981;28;20568;-68
2021/04/19 01:09:38;;;;;;;39.70;21.92;;;10.10;99.90;;;;;;5071719;28;20029;-70
2021/04/19 01:12:05;;;;;;;41.47;23.08;;;10.10;99.90;;;;;;5069989;28;20066;-69
2021/04/19 01:14:30;;;;;;;39.85;22.73;;;10.10;99.90;;;;;;5067574;28;20426;-69
2021/04/19 01:16:56;;;;;;;40.30;22.98;;;10.10;99.90;;;;;;5079857;28;20059;-69
2021/04/19 01:19:22;;;;;;;43.10;21.83;;;10.00;99.90;;;;;;5069871;28;20027;-69
2021/04/19 01:21:47;;;;;;;41.92;22.17;;;10.00;99.90;;;;;;5073595;28;20021;-68
2021/04/19 01:24:13;;;;;;;42.22;20.90;;;10.00;99.90;;;;;;5066465;28;20040;-69
2021/04/19 01:26:39;;;;;;;37.65;21.73;;;10.00;99.90;;;;;;5069107;28;20500;-69
2021/04/19 01:29:04;;;;;;;44.50;22.10;;;10.00;99.90;;;;;;5071158;28;20537;-69
2021/04/19 01:31:30;;;;;;;40.13;22.45;;;10.00;99.90;;;;;;5075264;28;20477;-69
2021/04/19 01:33:56;;;;;;;45.78;21.73;;;10.00;99.90;;;;;;5063372;28;20111;-69
2021/04/19 01:36:25;;;;;;;33.92;20.08;;;9.90;99.90;;;;;;5068057;28;20508;-69
2021/04/19 01:38:51;;;;;;;35.65;20.27;;;9.90;99.90;;;;;;5074201;28;20497;-69
2021/04/19 01:41:17;;;;;;;49.00;23.50;;;10.00;99.90;;;;;;5064497;28;20052;-69
2021/04/19 01:43:43;;;;;;;35.20;20.67;;;9.90;99.90;;;;;;5075870;28;20455;-69
2021/04/19 01:46:09;;;;;;;43.92;20.98;;;9.90;99.90;;;;;;5066064;28;20036;-69
2021/04/19 01:48:34;;;;;;;43.45;23.73;;;9.90;99.90;;;;;;5068108;28;20039;-69
2021/04/19 01:51:00;;;;;;;39.60;22.83;;;9.90;99.90;;;;;;5062944;28;20021;-69
2021/04/19 01:53:25;;;;;;;35.03;21.52;;;9.90;99.90;;;;;;5071312;28;20031;-69
2021/04/19 01:55:51;;;;;;;40.38;21.80;;;10.00;99.90;;;;;;5065319;28;20031;-70
2021/04/19 01:58:20;;;;;;;39.85;21.98;;;10.00;99.90;;;;;;5069476;28;20033;-69
2021/04/19 02:00:52;;;;;;;41.65;21.88;;;9.90;99.90;;;;;;5065258;28;20028;-69
2021/04/19 02:03:35;;;;;;;43.70;21.77;;;9.90;99.90;;;;;;5067032;28;20031;-69
2021/04/19 02:06:04;;;;;;;38.50;20.38;;;9.90;99.90;;;;;;5074787;28;20032;-69
2021/04/19 02:09:04;;;;;;;38.97;21.17;;;9.80;99.90;;;;;;5064476;28;20103;-69
2021/04/19 02:11:57;;;;;;;42.72;21.33;;;9.80;99.90;;;;;;5063103;28;20025;-69
2021/04/19 02:14:38;;;;;;;;;;;9.80;99.90;;;;;;5069018;28;20063;-69
2021/04/19 02:17:28;;;;;;;44.15;22.42;;;9.80;99.90;;;;;;5067351;28;20330;-69
2021/04/19 02:19:54;;;;;;;37.10;20.00;;;9.80;99.90;;;;;;5064399;28;20028;-69
2021/04/19 02:22:31;;;;;;;44.55;22.48;;;9.80;99.90;;;;;;5069409;28;20028;-69
2021/04/19 02:25:14;;;;;;;40.60;22.88;;;9.70;99.90;;;;;;5070814;28;20032;-69
2021/04/19 02:27:49;;;;;;;35.80;21.40;;;9.70;99.90;;;;;;5067833;28;20032;-69
2021/04/19 02:30:17;;;;;;;43.65;22.85;;;9.60;99.90;;;;;;5065134;28;20025;-69
2021/04/19 02:32:49;;;;;;;44.53;21.95;;;9.50;99.90;;;;;;5075142;28;20035;-69
2021/04/19 02:35:20;;;;;;;46.65;24.63;;;9.60;99.90;;;;;;5075346;28;20089;-69
2021/04/19 02:37:47;;;;;;;38.10;22.85;;;9.60;99.90;;;;;;5067922;28;20016;-69
2021/04/19 02:40:15;;;;;;;44.58;23.17;;;9.60;99.90;;;;;;5071391;28;20081;-69
2021/04/19 02:42:43;;;;;;;42.50;23.77;;;9.50;99.90;;;;;;5067564;28;20469;-69
2021/04/19 02:45:12;;;;;;;46.53;24.23;;;9.40;99.90;;;;;;5066219;28;20048;-69
2021/04/19 02:47:40;;;;;;;47.10;23.05;;;9.40;99.90;;;;;;5068371;28;20070;-69
2021/04/19 02:50:10;;;;;;;43.53;23.67;;;9.40;99.90;;;;;;5064752;28;20028;-69
2021/04/19 02:52:36;;;;;;;49.45;24.25;;;9.30;99.90;;;;;;5070247;28;20055;-69
2021/04/19 02:55:03;;;;;;;40.05;22.15;;;9.40;99.90;;;;;;5053861;28;599654;-69
2021/04/19 02:57:35;;;;;;;43.55;23.33;;;9.40;99.90;;;;;;5061883;28;20104;-69
2021/04/19 03:00:01;;;;;;;46.63;23.63;;;9.30;99.90;;;;;;5068844;28;20029;-69
2021/04/19 03:02:29;;;;;;;52.13;27.63;;;9.30;99.90;;;;;;5071380;28;20368;-69
2021/04/19 03:04:55;;;;;;;45.50;25.20;;;9.20;99.90;;;;;;5061665;28;20402;-69
2021/04/19 03:07:27;;;;;;;46.22;24.92;;;9.30;99.90;;;;;;5069670;28;20036;-69
2021/04/19 03:09:58;;;;;;;37.72;23.90;;;9.20;99.90;;;;;;5068942;28;20017;-69
2021/04/19 03:12:28;;;;;;;48.03;24.35;;;9.30;99.90;;;;;;5067461;28;20056;-69
2021/04/19 03:15:02;;;;;;;42.65;24.17;;;9.30;99.90;;;;;;5071694;28;20080;-69
2021/04/19 03:17:29;;;;;;;49.42;26.52;;;9.30;99.90;;;;;;5064363;28;20103;-69
2021/04/19 03:19:59;;;;;;;43.58;25.45;;;9.30;99.90;;;;;;5067133;28;20074;-69
2021/04/19 03:22:27;;;;;;;46.08;24.30;;;9.20;99.90;;;;;;5069861;28;20037;-69
2021/04/19 03:24:54;;;;;;;43.55;23.80;;;9.20;99.90;;;;;;5064605;28;20052;-69
2021/04/19 03:27:22;;;;;;;40.95;23.23;;;9.20;99.90;;;;;;5074886;28;20032;-69
2021/04/19 03:29:47;;;;;;;42.70;24.73;;;9.20;99.90;;;;;;5068320;28;20116;-69
2021/04/19 03:32:17;;;;;;;42.35;24.08;;;9.10;99.90;;;;;;5071468;28;20456;-69
2021/04/19 03:34:45;;;;;;;42.70;22.38;;;9.10;99.90;;;;;;5070754;28;20429;-69
2021/04/19 03:37:16;;;;;;;46.03;24.05;;;9.20;99.90;;;;;;5064843;28;20012;-69
2021/04/19 03:39:48;;;;;;;38.95;22.25;;;9.10;99.90;;;;;;5074513;28;20473;-69
2021/04/19 03:42:15;;;;;;;48.10;24.80;;;9.00;99.90;;;;;;5072929;28;20074;-69
2021/04/19 03:44:43;;;;;;;40.30;21.52;;;8.90;99.90;;;;;;5068945;28;20028;-69
2021/04/19 03:47:10;;;;;;;48.72;24.17;;;8.90;99.90;;;;;;5074888;28;20013;-69
2021/04/19 03:49:44;;;;;;;39.72;23.17;;;8.90;99.90;;;;;;5068455;28;20480;-69
2021/04/19 03:52:14;;;;;;;45.60;24.50;;;8.80;99.90;;;;;;5070863;28;20111;-69
2021/04/19 03:54:46;;;;;;;40.83;23.92;;;8.80;99.90;;;;;;5067149;28;20427;-69
2021/04/19 03:57:17;;;;;;;42.83;25.25;;;8.80;99.90;;;;;;5069837;28;20024;-69
2021/04/19 03:59:45;;;;;;;46.78;24.92;;;8.70;99.90;;;;;;5074281;28;20025;-69
2021/04/19 04:02:13;;;;;;;47.38;26.00;;;8.70;99.90;;;;;;5069351;28;20111;-69
2021/04/19 04:04:41;;;;;;;50.83;24.92;;;8.80;99.90;;;;;;5070783;28;20028;-69
2021/04/19 04:07:08;;;;;;;45.63;26.60;;;8.80;99.90;;;;;;5068519;28;20032;-69
2021/04/19 04:09:35;;;;;;;45.50;27.08;;;8.80;99.90;;;;;;5074625;28;20029;-69
2021/04/19 04:12:02;;;;;;;51.50;26.42;;;8.70;99.90;;;;;;5075731;28;20026;-69
2021/04/19 04:14:29;;;;;;;47.05;24.83;;;8.70;99.90;;;;;;5073701;28;20392;-69
2021/04/19 04:16:54;;;;;;;43.45;23.45;;;8.60;99.90;;;;;;5073185;28;20024;-69
2021/04/19 04:19:20;;;;;;;41.13;24.33;;;8.50;99.90;;;;;;5070297;28;20106;-69
2021/04/19 04:21:47;;;;;;;45.03;25.05;;;8.50;99.90;;;;;;5076790;28;20032;-69
2021/04/19 04:24:13;;;;;;;48.33;26.05;;;8.50;99.90;;;;;;5070577;28;20031;-69
2021/04/19 04:26:39;;;;;;;50.83;27.20;;;8.50;99.90;;;;;;5074790;28;20039;-69
2021/04/19 04:29:04;;;;;;;45.35;25.80;;;8.60;99.90;;;;;;5072862;28;20028;-69
2021/04/19 04:31:31;;;;;;;53.33;28.23;;;8.60;99.90;;;;;;5074081;28;20362;-69
2021/04/19 04:33:56;;;;;;;50.30;26.73;;;8.60;99.90;;;;;;5073529;28;20392;-69
2021/04/19 04:36:22;;;;;;;51.63;27.40;;;8.60;99.90;;;;;;5069144;28;20100;-69
2021/04/19 04:38:47;;;;;;;48.08;27.23;;;8.60;99.90;;;;;;5070890;28;20116;-69
2021/04/19 04:41:13;;;;;;;50.10;29.33;;;8.50;99.90;;;;;;5075761;28;20465;-69
2021/04/19 04:43:41;;;;;;;50.78;28.67;;;8.50;99.90;;;;;;5076524;28;20043;-69
2021/04/19 04:46:38;;;;;;;51.00;29.55;;;8.60;99.90;;;;;;5068336;28;20051;-69
2021/04/19 04:49:06;;;;;;;46.60;30.67;;;8.50;99.90;;;;;;5068416;28;20036;-69
2021/04/19 04:51:34;;;;;;;55.47;27.88;;;8.50;99.90;;;;;;5070833;28;20024;-69
2021/04/19 04:54:03;;;;;;;50.70;28.55;;;8.50;99.90;;;;;;5067191;28;20132;-69
2021/04/19 04:56:33;;;;;;;48.53;28.77;;;8.50;99.90;;;;;;5070126;28;20130;-69
2021/04/19 04:59:00;;;;;;;49.50;27.85;;;8.40;99.90;;;;;;5074771;28;20036;-69
2021/04/19 05:01:28;;;;;;;52.88;26.92;;;8.40;99.90;;;;;;5068920;28;20029;-69
2021/04/19 05:03:54;;;;;;;48.25;27.25;;;8.30;99.90;;;;;;5070269;28;20032;-69
2021/04/19 05:06:20;;;;;;;50.00;26.35;;;8.30;99.90;;;;;;5068918;28;20039;-69
2021/04/19 05:08:48;;;;;;;58.13;29.33;;;8.30;99.90;;;;;;5068088;28;20288;-69
2021/04/19 05:11:14;;;;;;;50.67;28.50;;;8.20;99.90;;;;;;5068559;28;20107;-69
2021/04/19 05:13:40;;;;;;;48.67;29.25;;;8.20;99.90;;;;;;5067666;28;20035;-69
2021/04/19 05:16:06;;;;;;;48.90;28.48;;;8.20;99.90;;;;;;5067586;28;20399;-69
2021/04/19 05:18:32;;;;;;;47.08;27.35;;;8.10;99.90;;;;;;5073231;28;20082;-69
2021/04/19 05:20:58;;;;;;;53.15;26.55;;;8.10;99.90;;;;;;5064015;28;20030;-69
2021/04/19 05:23:25;;;;;;;45.80;24.42;;;8.10;99.90;;;;;;5067923;28;20100;-69
2021/04/19 05:25:50;;;;;;;46.22;27.08;;;8.10;99.90;;;;;;5068645;28;20032;-69
2021/04/19 05:28:20;;;;;;;59.90;30.90;;;8.10;99.90;;;;;;5069292;28;20074;-69
2021/04/19 05:30:49;;;;;;;48.38;25.48;;;8.10;99.90;;;;;;5072689;28;20024;-69
2021/04/19 05:33:16;;;;;;;44.22;24.27;;;8.10;99.90;;;;;;5070093;28;20020;-69
2021/04/19 05:35:42;;;;;;;45.40;22.77;;;8.10;99.90;;;;;;5067653;28;20029;-69
2021/04/19 05:38:08;;;;;;;45.92;24.77;;;8.10;99.90;;;;;;5073591;28;20027;-69
2021/04/19 05:40:35;;;;;;;50.00;26.27;;;8.10;99.90;;;;;;5064917;28;20024;-69
2021/04/19 05:43:03;;;;;;;46.00;25.35;;;8.00;99.90;;;;;;5071540;28;20476;-69
2021/04/19 05:45:30;;;;;;;53.80;28.33;;;8.00;99.90;;;;;;5065046;28;20111;-68
2021/04/19 05:47:56;;;;;;;48.15;28.25;;;8.10;99.90;;;;;;5067974;28;20028;-69
2021/04/19 05:50:24;;;;;;;50.10;29.70;;;8.30;99.90;;;;;;5063566;28;20025;-69
2021/04/19 05:52:55;;;;;;;54.17;30.58;;;8.30;99.90;;;;;;5071678;28;20081;-69
2021/04/19 05:55:27;;;;;;;52.97;27.38;;;8.30;99.90;;;;;;5074234;28;20044;-68
2021/04/19 05:58:13;;;;;;;50.60;26.40;;;8.40;99.90;;;;;;5065711;28;20013;-68
2021/04/19 06:00:46;;;;;;;53.95;28.75;;;8.20;99.90;;;;;;5066355;28;20027;-69
2021/04/19 06:03:55;;;;;;;47.33;27.05;;;8.30;99.90;;;;;;5073315;28;20082;-69
2021/04/19 06:06:46;;;;;;;47.63;29.85;;;8.40;99.90;;;;;;5071852;28;20031;-69
2021/04/19 06:09:24;;;;;;;53.47;29.15;;;8.50;99.90;;;;;;5059411;28;20040;-68
2021/04/19 06:11:54;;;;;;;53.13;31.45;;;8.40;99.90;;;;;;5066423;28;20380;-68
2021/04/19 06:14:31;;;;;;;53.42;31.15;;;8.50;99.90;;;;;;5066011;28;20040;-68
2021/04/19 06:16:59;;;;;;;52.47;29.80;;;8.50;99.90;;;;;;5071158;28;20093;-68
2021/04/19 06:19:26;;;;;;;50.33;27.98;;;8.50;99.90;;;;;;5063969;28;20525;-68
2021/04/19 06:21:52;;;;;;;60.80;31.92;;;8.40;99.90;;;;;;5068810;28;20505;-68
2021/04/19 06:24:18;;;;;;;51.75;30.45;;;8.50;99.90;;;;;;5067062;28;20032;-68
2021/04/19 06:26:44;;;;;;;52.38;28.15;;;8.50;99.90;;;;;;5069300;28;20033;-68
2021/04/19 06:29:11;;;;;;;58.58;31.55;;;8.50;99.90;;;;;;5058305;28;20033;-68
2021/04/19 06:31:47;;;;;;;54.75;33.08;;;8.50;99.90;;;;;;5071830;28;20027;-68
2021/04/19 06:34:13;;;;;;;55.88;31.00;;;8.40;99.90;;;;;;5062630;28;20048;-67
2021/04/19 06:36:41;;;;;;;53.42;33.75;;;8.50;99.90;;;;;;5069160;28;20477;-69
2021/04/19 06:39:10;;;;;;;50.65;31.40;;;8.50;99.90;;;;;;5069984;28;20024;-68
2021/04/19 06:41:36;;;;;;;51.17;29.45;;;8.40;99.90;;;;;;5064424;28;20048;-69
2021/04/19 06:44:03;;;;;;;57.00;31.48;;;8.40;99.90;;;;;;5067882;28;20028;-68
2021/04/19 06:46:34;;;;;;;57.55;33.60;;;8.40;99.90;;;;;;5078418;28;20024;-68
2021/04/19 06:49:01;;;;;;;56.33;31.90;;;8.50;99.90;;;;;;5076248;28;20039;-68
2021/04/19 06:51:28;;;;;;;56.28;32.85;;;8.50;99.90;;;;;;5062294;28;20508;-68
2021/04/19 06:53:55;;;;;;;49.92;29.08;;;8.60;99.90;;;;;;5070292;28;20036;-68
2021/04/19 06:56:26;;;;;;;57.33;31.60;;;8.50;99.90;;;;;;5072085;28;20020;-68
2021/04/19 06:58:53;;;;;;;50.65;32.17;;;8.60;99.90;;;;;;5071176;28;20040;-68
2021/04/19 07:01:21;;;;;;;52.22;30.85;;;8.60;99.90;;;;;;5066080;28;20103;-69
2021/04/19 07:03:49;;;;;;;57.42;32.75;;;8.60;99.90;;;;;;5057527;28;20027;-69
2021/04/19 07:06:17;;;;;;;53.05;30.67;;;8.60;99.90;;;;;;5066709;28;20039;-69
2021/04/19 07:08:49;;;;;;;56.78;32.05;;;8.70;99.90;;;;;;5070190;28;20063;-69
2021/04/19 07:11:22;;;;;;;56.10;32.60;;;8.80;99.90;;;;;;5063659;28;20017;-69
2021/04/19 07:13:49;;;;;;;52.10;32.75;;;8.80;99.90;;;;;;5067164;28;20039;-69
2021/04/19 07:16:16;;;;;;;52.38;32.20;;;8.90;99.90;;;;;;5062733;28;20036;-68
2021/04/19 07:18:42;;;;;;;56.78;32.97;;;8.90;99.90;;;;;;5072177;28;20461;-70
2021/04/19 07:21:10;;;;;;;52.90;33.80;;;9.00;99.90;;;;;;5072186;28;20029;-68
2021/04/19 07:23:36;;;;;;;51.92;30.83;;;9.00;99.90;;;;;;5059638;28;20036;-68
2021/04/19 07:26:04;;;;;;;56.90;32.30;;;9.10;99.90;;;;;;5049864;28;20063;-69
2021/04/19 07:28:36;;;;;;;51.95;30.80;;;9.00;99.90;;;;;;5048741;28;20211;-68
2021/04/19 07:31:02;;;;;;;52.10;31.70;;;9.00;99.90;;;;;;5061002;28;20027;-69
2021/04/19 07:33:31;;;;;;;51.33;32.33;;;9.00;99.90;;;;;;5052943;28;20050;-68
2021/04/19 07:35:57;;;;;;;55.65;33.10;;;9.00;99.90;;;;;;5067260;28;20145;-68
2021/04/19 07:38:34;;;;;;;55.60;30.67;;;9.10;99.90;;;;;;5069388;28;20505;-68
2021/04/19 07:41:00;;;;;;;54.20;29.38;;;9.10;99.90;;;;;;5075337;28;20040;-68
2021/04/19 07:43:26;;;;;;;55.92;30.17;;;9.10;99.90;;;;;;5073237;28;20024;-68
2021/04/19 07:46:08;;;;;;;52.42;31.73;;;9.20;99.90;;;;;;5071375;28;20020;-68
2021/04/19 07:48:50;;;;;;;50.05;28.90;;;9.30;99.90;;;;;;5072858;28;20472;-68
2021/04/19 07:51:31;;;;;;;46.83;29.17;;;9.30;99.90;;;;;;5065276;28;20024;-68
2021/04/19 07:54:18;;;;;;;52.70;30.65;;;9.20;99.90;;;;;;5064705;28;20039;-67
2021/04/19 07:56:51;;;;;;;54.85;32.50;;;9.30;99.90;;;;;;5070454;28;20089;-68
2021/04/19 07:59:32;;;;;;;52.95;31.63;;;9.30;99.90;;;;;;5063231;28;20123;-68
2021/04/19 08:02:19;;;;;;;52.88;30.90;;;9.30;99.90;;;;;;5069798;28;20033;-67
2021/04/19 08:04:53;;;;;;;56.35;33.55;;;9.30;99.90;;;;;;5072291;28;20070;-67
2021/04/19 08:07:19;;;;;;;58.88;36.63;;;9.30;99.90;;;;;;5068070;28;20115;-67
2021/04/19 08:10:06;;;;;;;54.45;32.55;;;9.40;99.90;;;;;;5064904;28;20460;-68
2021/04/19 08:12:32;;;;;;;51.03;30.48;;;9.30;99.90;;;;;;5072775;28;20056;-68
2021/04/19 08:14:59;;;;;;;48.40;30.88;;;9.30;99.90;;;;;;5073713;28;20443;-67
2021/04/19 08:17:29;;;;;;;53.42;31.45;;;9.30;99.90;;;;;;5070691;28;20032;-68
2021/04/19 08:19:56;;;;;;;60.00;34.17;;;9.40;99.90;;;;;;5074719;28;20375;-68
2021/04/19 08:22:26;;;;;;;54.30;33.20;;;9.50;99.90;;;;;;5070580;28;20550;-67
2021/04/19 08:25:21;;;;;;;54.15;33.05;;;9.50;99.90;;;;;;5070745;28;20693;-67
2021/04/19 08:28:17;;;;;;;59.88;34.28;;;9.60;99.90;;;;;;5076035;28;20036;-71
2021/04/19 08:30:49;;;;;;;49.67;30.75;;;9.60;99.90;;;;;;5064257;28;20033;-67
2021/04/19 08:33:15;;;;;;;;;;;9.60;99.90;;;;;;5067475;28;20022;-68
2021/04/19 08:35:42;;;;;;;53.97;31.67;;;9.70;99.90;;;;;;5069838;28;19920;-68
2021/04/19 08:38:09;;;;;;;52.60;32.10;;;9.70;99.90;;;;;;5066758;28;20115;-67
2021/04/19 08:40:38;;;;;;;55.05;31.95;;;9.70;99.90;;;;;;5073243;28;20058;-68
2021/04/19 08:43:12;;;;;;;47.80;31.88;;;9.70;99.90;;;;;;5075961;28;20496;-68
2021/04/19 08:45:40;;;;;;;51.90;31.75;;;9.70;99.90;;;;;;5069507;28;20024;-66
2021/04/19 08:48:12;;;;;;;53.92;33.55;;;9.70;99.90;;;;;;5071438;28;20021;-67
2021/04/19 08:50:39;;;;;;;56.80;34.63;;;9.60;99.90;;;;;;5085669;28;20384;-67
2021/04/19 08:53:08;;;;;;;57.47;30.95;;;9.60;99.90;;;;;;5067911;28;20060;-66
2021/04/19 08:55:35;;;;;;;51.28;30.50;;;9.70;99.90;;;;;;5074016;28;20047;-66
2021/04/19 08:58:05;;;;;;;56.08;34.88;;;9.80;99.90;;;;;;5064193;28;20029;-67
2021/04/19 09:00:31;;;;;;;56.10;33.65;;;9.80;99.90;;;;;;5071390;28;20103;-67
2021/04/19 09:03:00;;;;;;;57.47;37.17;;;9.80;99.90;;;;;;5079203;28;20039;-67
2021/04/19 09:05:27;;;;;;;55.65;34.35;;;9.90;99.90;;;;;;5073253;28;20028;-67
2021/04/19 09:08:05;;;;;;;54.60;32.60;;;9.90;99.90;;;;;;5064963;28;20043;-67
2021/04/19 09:11:06;;;;;;;58.50;33.97;;;10.10;99.90;;;;;;5065443;28;20040;-67
2021/04/19 09:13:35;;;;;;;54.75;33.63;;;10.10;99.90;;;;;;5074104;28;20381;-67
2021/04/19 09:16:20;;;;;;;56.90;33.63;;;10.10;99.90;;;;;;5066724;28;20048;-68
2021/04/19 09:18:52;;;;;;;48.30;30.95;;;10.20;99.90;;;;;;5071919;28;20029;-67
2021/04/19 09:21:49;;;;;;;52.90;33.67;;;10.10;99.90;;;;;;5070421;28;20024;-67
2021/04/19 09:24:22;;;;;;;58.35;38.35;;;10.00;99.90;;;;;;5068904;28;20021;-67
2021/04/19 09:26:59;;;;;;;51.28;31.83;;;10.10;99.90;;;;;;5063229;28;20544;-68
2021/04/19 09:29:25;;;;;;;62.83;33.65;;;10.10;99.90;;;;;;5065194;28;20028;-68
2021/04/19 09:32:20;;;;;;;54.55;30.92;;;10.30;99.90;;;;;;5073213;28;20020;-67
2021/04/19 09:34:49;;;;;;;51.47;31.55;;;10.40;99.90;;;;;;5068368;28;20205;-67
2021/04/19 09:37:17;;;;;;;53.65;31.55;;;10.50;99.90;;;;;;5062231;28;20016;-67
2021/04/19 09:39:44;;;;;;;60.67;36.33;;;10.50;99.90;;;;;;5062315;28;20033;-67
2021/04/19 09:42:10;;;;;;;55.10;34.95;;;10.60;99.90;;;;;;5070696;28;20028;-68
2021/04/19 09:44:49;;;;;;;52.85;33.28;;;10.70;99.90;;;;;;5066936;28;20024;-67
2021/04/19 09:47:50;;;;;;;49.72;28.38;;;10.80;99.90;;;;;;5070302;28;20012;-68
2021/04/19 09:50:20;;;;;;;43.75;26.75;;;10.90;99.90;;;;;;5070609;28;20036;-68
2021/04/19 09:52:53;;;;;;;39.80;27.33;;;11.10;99.90;;;;;;5070021;28;20500;-67
2021/04/19 09:55:19;;;;;;;;;;;11.20;99.90;;;;;;5067729;28;20045;-68
2021/04/19 09:57:45;;;;;;;43.33;26.35;;;11.30;99.90;;;;;;5062020;28;19969;-69
2021/04/19 10:00:11;;;;;;;46.95;28.33;;;11.40;99.90;;;;;;5070102;28;20428;-68
2021/04/19 10:02:40;;;;;;;40.25;26.63;;;11.40;99.90;;;;;;5073824;28;20492;-68
2021/04/19 10:05:07;;;;;;;44.95;26.23;;;11.50;99.90;;;;;;5073011;28;20035;-68
2021/04/19 10:07:40;;;;;;;42.05;25.30;;;11.40;99.90;;;;;;5069980;28;20029;-68
2021/04/19 10:10:07;;;;;;;38.53;25.92;;;11.40;99.90;;;;;;5069212;28;20035;-67
2021/04/19 10:12:36;;;;;;;43.05;25.23;;;11.40;99.90;;;;;;5069678;28;20119;-67
2021/04/19 10:15:02;;;;;;;42.00;26.65;;;11.40;99.90;;;;;;5071573;28;20119;-67
2021/04/19 10:17:32;;;;;;;52.25;30.23;;;11.50;99.90;;;;;;5068308;28;20016;-67
2021/04/19 10:20:24;;;;;;;42.85;28.42;;;11.40;99.90;;;;;;5064973;28;20385;-67
2021/04/19 10:23:06;;;;;;;45.38;27.48;;;11.40;99.90;;;;;;5062878;28;20051;-67
2021/04/19 10:25:33;;;;;;;43.42;27.55;;;11.40;99.90;;;;;;5068723;28;20025;-68
2021/04/19 10:27:58;;;;;;;43.38;27.08;;;11.40;99.90;;;;;;5069740;28;20035;-67
2021/04/19 10:30:24;;;;;;;48.00;27.65;;;11.40;99.90;;;;;;5071254;28;20024;-67
2021/04/19 10:32:50;;;;;;;49.38;30.35;;;11.40;99.90;;;;;;5068830;28;20166;-67
2021/04/19 10:35:33;;;;;;;50.90;31.80;;;11.40;99.90;;;;;;5068607;28;20537;-67
2021/04/19 10:37:59;;;;;;;;;;;11.30;99.90;;;;;;5060827;28;20043;-67
2021/04/19 10:40:25;;;;;;;49.42;29.48;;;11.30;99.90;;;;;;5063992;28;20006;-67
2021/04/19 10:43:12;;;;;;;49.45;34.05;;;11.30;99.90;;;;;;5075616;28;20366;-67
2021/04/19 10:45:39;;;;;;;52.58;34.05;;;11.20;99.90;;;;;;5067162;28;20439;-67
2021/04/19 10:48:18;;;;;;;53.72;33.90;;;11.20;99.90;;;;;;5066496;28;20586;-67
2021/04/19 10:50:43;;;;;;;46.75;32.38;;;11.10;99.90;;;;;;5068113;28;20036;-69
2021/04/19 10:53:09;;;;;;;54.17;31.92;;;11.00;99.90;;;;;;5069115;28;20028;-68
2021/04/19 10:55:35;;;;;;;56.10;32.67;;;11.00;99.90;;;;;;5074631;28;20135;-68
2021/04/19 10:58:01;;;;;;;51.20;33.28;;;11.00;99.90;;;;;;5075141;28;20024;-68
2021/04/19 11:00:27;;;;;;;53.90;34.45;;;11.00;99.90;;;;;;5073613;28;20039;-67
2021/04/19 11:02:53;;;;;;;57.50;35.95;;;11.00;99.90;;;;;;5071605;28;20020;-68
2021/04/19 11:05:19;;;;;;;57.13;34.90;;;11.00;99.90;;;;;;5074969;28;20485;-68
2021/04/19 11:07:45;;;;;;;56.03;33.67;;;11.00;99.90;;;;;;5072082;28;20538;-68
2021/04/19 11:10:29;;;;;;;61.67;36.50;;;11.00;99.90;;;;;;5064994;28;20115;-67
2021/04/19 11:13:08;;;;;;;55.20;39.00;;;11.00;99.90;;;;;;5072360;28;20032;-68
2021/04/19 11:15:43;;;;;;;68.85;41.75;;;11.00;99.90;;;;;;5062339;28;20036;-68
2021/04/19 11:18:29;;;;;;;68.47;42.33;;;11.00;99.90;;;;;;5074119;28;20048;-67
2021/04/19 11:20:56;;;;;;;71.05;41.90;;;11.10;99.90;;;;;;5064096;28;20032;-68
2021/04/19 11:23:30;;;;;;;63.28;41.60;;;11.10;99.90;;;;;;5071542;28;20029;-68
2021/04/19 11:26:01;;;;;;;68.35;42.28;;;11.00;99.90;;;;;;5065412;28;20052;-70
2021/04/19 11:28:34;;;;;;;64.20;42.13;;;11.00;99.90;;;;;;5067885;28;20017;-67
2021/04/19 11:31:15;;;;;;;62.72;39.05;;;10.90;99.90;;;;;;5082019;28;20016;-67
2021/04/19 11:33:41;;;;;;;63.50;41.53;;;10.90;99.90;;;;;;5077545;28;20059;-67
2021/04/19 11:36:07;;;;;;;63.92;41.70;;;11.00;99.90;;;;;;5077460;28;20496;-68
2021/04/19 11:38:38;;;;;;;57.00;37.88;;;11.00;99.90;;;;;;5075941;28;20521;-67
2021/04/19 11:41:07;;;;;;;68.88;42.42;;;11.00;99.90;;;;;;5071996;28;20149;-67
2021/04/19 11:43:35;;;;;;;50.00;36.13;;;11.00;99.90;;;;;;5067840;28;20097;-67
2021/04/19 11:46:02;;;;;;;44.13;32.25;;;11.00;99.90;;;;;;5068963;28;20058;-66
2021/04/19 11:48:30;;;;;;;53.67;35.53;;;11.00;99.90;;;;;;5070697;28;20083;-66
2021/04/19 11:50:57;;;;;;;57.15;39.58;;;10.90;99.90;;;;;;5071236;28;20494;-67
2021/04/19 11:53:28;;;;;;;49.25;38.30;;;11.00;99.90;;;;;;5073721;28;20024;-67
2021/04/19 11:55:54;;;;;;;48.33;34.92;;;11.00;99.90;;;;;;5060647;28;20060;-70
2021/04/19 11:58:22;;;;;;;48.47;34.42;;;10.90;99.90;;;;;;5065867;28;20028;-68
2021/04/19 12:00:48;;;;;;;47.17;34.38;;;11.00;99.90;;;;;;5068830;28;20028;-67
2021/04/19 12:03:17;;;;;;;44.67;31.98;;;11.10;99.90;;;;;;5067465;28;20036;-68
2021/04/19 12:05:42;;;;;;;40.53;29.55;;;11.10;99.90;;;;;;5078385;28;20031;-68
2021/04/19 12:08:09;;;;;;;34.05;27.08;;;11.10;99.90;;;;;;5068142;28;20028;-68
2021/04/19 12:10:36;;;;;;;44.55;32.83;;;11.10;99.90;;;;;;5066814;28;20040;-69
2021/04/19 12:13:02;;;;;;;41.35;30.65;;;11.10;99.90;;;;;;5070705;28;20430;-68
2021/04/19 12:15:28;;;;;;;43.70;33.05;;;11.00;99.90;;;;;;5069638;28;20036;-67
2021/04/19 12:17:53;;;;;;;40.05;29.60;;;11.00;99.90;;;;;;5078178;28;20027;-67
2021/04/19 12:20:19;;;;;;;42.33;32.13;;;11.00;99.90;;;;;;5069956;28;20032;-67
2021/04/19 12:22:45;;;;;;;46.60;35.35;;;11.20;99.90;;;;;;5071651;28;20469;-67
2021/04/19 12:25:11;;;;;;;50.72;36.33;;;11.20;99.90;;;;;;5063502;28;20050;-68
2021/04/19 12:27:37;;;;;;;50.00;34.47;;;11.20;99.90;;;;;;5071124;28;20024;-68
2021/04/19 12:30:04;;;;;;;45.20;34.63;;;11.20;99.90;;;;;;5066014;28;20051;-68
2021/04/19 12:32:29;;;;;;;48.35;35.80;;;11.20;99.90;;;;;;5070279;28;20154;-68
2021/04/19 12:34:55;;;;;;;42.42;31.92;;;11.30;99.90;;;;;;5071387;28;20119;-68
2021/04/19 12:37:20;;;;;;;46.20;34.30;;;11.30;99.90;;;;;;5065110;28;20480;-68
2021/04/19 12:39:46;;;;;;;54.20;39.00;;;11.20;99.90;;;;;;5072870;28;20370;-68
2021/04/19 12:42:11;;;;;;;45.35;32.30;;;11.30;99.90;;;;;;5082670;28;20020;-68
2021/04/19 12:44:37;;;;;;;41.92;31.73;;;11.30;99.90;;;;;;5068967;28;20020;-68
2021/04/19 12:47:03;;;;;;;40.97;31.52;;;11.40;99.90;;;;;;5073329;28;20440;-68